createdAt,value
2017-10-15T13:41:58.817Z,40.13
2017-10-15T13:42:58.590Z,39.75
2017-10-15T13:43:59.825Z,39.34
2017-10-15T13:44:59.698Z,40.39
2017-10-15T13:45:58.402Z,40.29
2017-10-15T13:46:58.390Z,41.64
2017-10-15T13:47:58.391Z,42.33
2017-10-15T13:48:58.369Z,40.97
2017-10-15T13:49:58.451Z,40.48
2017-10-15T13:50:58.384Z,40.58
2017-10-15T13:51:58.367Z,41.45
2017-10-15T13:52:58.320Z,41.55
2017-10-15T13:53:58.334Z,41.16
2017-10-15T13:54:58.296Z,40.09
2017-10-15T13:55:58.312Z,39.14
2017-10-15T13:56:58.311Z,39.34
2017-10-15T13:57:58.272Z,39.04
2017-10-15T13:58:58.330Z,38.48
2017-10-15T13:59:58.245Z,38.65
2017-10-15T14:00:58.220Z,38.37
2017-10-15T14:01:58.252Z,39.14
2017-10-15T14:02:58.209Z,39.34
2017-10-15T14:03:58.240Z,39.24
2017-10-15T14:04:58.682Z,39.24
2017-10-15T14:05:58.253Z,39.04
2017-10-15T14:06:58.192Z,39.26
2017-10-15T14:07:58.231Z,39.26
2017-10-15T14:08:58.179Z,39.24
2017-10-15T14:09:58.137Z,39.43
2017-10-15T14:10:58.275Z,39.51
2017-10-15T14:11:58.146Z,39.70
2017-10-15T14:12:58.104Z,40.29
2017-10-15T14:13:58.139Z,41.14
2017-10-15T14:14:58.122Z,40.85
2017-10-15T14:15:58.107Z,41.51
2017-10-15T14:16:58.137Z,42.17
2017-10-15T14:17:58.048Z,42.36
2017-10-15T14:18:58.043Z,42.63
2017-10-15T14:19:58.057Z,43.12
2017-10-15T14:20:58.015Z,43.68
2017-10-15T14:21:58.049Z,44.26
2017-10-15T14:22:58.573Z,44.54
2017-10-15T14:23:58.004Z,45.10
2017-10-15T14:24:57.978Z,45.78
2017-10-15T14:25:57.983Z,45.68
2017-10-15T14:26:58.004Z,46.44
2017-10-15T14:27:57.952Z,45.66
2017-10-15T14:28:57.947Z,46.25
2017-10-15T14:29:57.965Z,46.70
2017-10-15T14:30:57.921Z,47.86
2017-10-15T14:31:57.925Z,48.64
2017-10-15T14:32:57.897Z,49.12
2017-10-15T14:33:57.914Z,49.39
2017-10-15T14:34:57.927Z,49.49
2017-10-15T14:35:58.564Z,49.97
2017-10-15T14:36:57.874Z,50.43
2017-10-15T14:37:57.876Z,50.81
2017-10-15T14:38:57.873Z,50.71
2017-10-15T14:39:57.870Z,51.97
2017-10-15T14:40:57.855Z,51.78
2017-10-15T14:41:58.884Z,52.17
2017-10-15T14:42:57.805Z,52.81
2017-10-15T14:43:57.812Z,53.20
2017-10-15T14:44:57.789Z,53.20
2017-10-15T14:45:57.798Z,53.20
2017-10-15T14:46:58.565Z,53.01
2017-10-15T14:47:57.757Z,53.17
2017-10-15T14:48:57.767Z,53.30
2017-10-15T14:49:57.740Z,54.82
2017-10-15T14:51:57.713Z,55.01
2017-10-15T14:52:57.702Z,55.30
2017-10-15T14:53:57.677Z,55.49
2017-10-15T14:54:57.700Z,55.85
2017-10-15T14:55:57.708Z,56.24
2017-10-15T14:56:57.793Z,56.72
2017-10-15T14:58:18.645Z,57.10
2017-10-15T14:58:58.707Z,57.01
2017-10-15T14:59:57.595Z,58.14
2017-10-15T15:00:57.599Z,58.14
2017-10-15T15:01:57.598Z,58.04
2017-10-15T15:02:57.583Z,58.23
2017-10-15T15:04:18.754Z,58.42
2017-10-15T15:04:57.578Z,58.52
2017-10-15T15:05:57.555Z,58.20
2017-10-15T15:06:57.536Z,58.30
2017-10-15T15:07:57.539Z,59.17
2017-10-15T15:08:57.493Z,58.88
2017-10-15T15:10:18.492Z,59.36
2017-10-15T15:10:57.523Z,59.65
2017-10-15T15:11:57.479Z,60.23
2017-10-15T15:12:57.455Z,60.90
2017-10-15T15:13:57.423Z,61.16
2017-10-15T15:14:57.448Z,60.97
2017-10-15T15:16:18.431Z,61.35
2017-10-15T15:16:57.402Z,62.12
2017-10-15T15:17:57.392Z,62.32
2017-10-15T15:18:57.405Z,63.09
2017-10-15T15:19:57.404Z,63.64
2017-10-15T15:20:57.404Z,63.82
2017-10-15T15:22:18.355Z,63.73
2017-10-15T15:22:57.320Z,64.50
2017-10-15T15:23:57.363Z,64.79
2017-10-15T15:24:57.319Z,65.17
2017-10-15T15:25:57.286Z,65.81
2017-10-15T15:26:57.288Z,65.43
2017-10-15T15:28:18.274Z,66.10
2017-10-15T15:28:57.241Z,66.68
2017-10-15T15:29:57.226Z,66.78
2017-10-15T15:30:57.222Z,67.07
2017-10-15T15:31:57.206Z,67.32
2017-10-15T15:32:57.217Z,68.09
2017-10-15T15:34:18.183Z,67.90
2017-10-15T15:34:57.158Z,68.57
2017-10-15T15:35:57.156Z,68.86
2017-10-15T15:36:57.160Z,69.40
2017-10-15T15:37:57.122Z,69.12
2017-10-15T15:38:57.110Z,69.60
2017-10-15T15:40:18.106Z,70.07
2017-10-15T15:40:57.088Z,69.79
2017-10-15T15:41:57.091Z,70.07
2017-10-15T15:42:57.063Z,70.94
2017-10-15T15:43:57.055Z,70.94
2017-10-15T15:44:57.051Z,71.33
2017-10-15T15:46:18.035Z,71.10
2017-10-15T15:46:57.046Z,71.67
2017-10-15T15:47:57.026Z,71.48
2017-10-15T15:48:56.983Z,72.16
2017-10-15T15:49:56.985Z,72.44
2017-10-15T15:50:56.964Z,73.11
2017-10-15T15:52:20.575Z,73.50
2017-10-15T15:52:56.966Z,73.56
2017-10-15T15:53:56.935Z,73.66
2017-10-15T15:54:56.941Z,74.04
2017-10-15T15:55:56.931Z,74.23
2017-10-15T15:56:56.911Z,75.20
2017-10-15T15:58:18.187Z,75.29
2017-10-15T15:58:57.007Z,75.15
2017-10-15T15:59:56.850Z,75.38
2017-10-15T16:00:56.828Z,75.63
2017-10-15T16:01:56.814Z,75.92
2017-10-15T16:02:56.788Z,75.82
2017-10-15T16:04:17.790Z,76.31
2017-10-15T16:04:56.760Z,76.31
2017-10-15T16:05:56.775Z,76.59
2017-10-15T16:06:56.731Z,76.75
2017-10-15T16:07:56.724Z,76.94
2017-10-15T16:08:57.520Z,76.94
2017-10-15T16:10:17.707Z,77.04
2017-10-15T16:10:56.671Z,77.51
2017-10-15T16:11:56.683Z,77.61
2017-10-15T16:12:56.659Z,77.71
2017-10-15T16:13:56.689Z,78.53
2017-10-15T16:14:56.616Z,78.53
2017-10-15T16:16:17.615Z,79.68
2017-10-15T16:16:56.615Z,80.16
2017-10-15T16:17:56.580Z,80.22
2017-10-15T16:18:56.581Z,80.60
2017-10-15T16:19:56.551Z,80.89
2017-10-15T16:20:56.669Z,81.27
2017-10-15T16:22:17.599Z,80.89
2017-10-15T16:22:56.579Z,81.18
2017-10-15T16:23:56.517Z,81.52
2017-10-15T16:24:56.523Z,81.33
2017-10-15T16:25:56.504Z,81.81
2017-10-15T16:26:56.446Z,82.86
2017-10-15T16:28:17.460Z,82.76
2017-10-15T16:28:56.426Z,82.48
2017-10-15T16:29:56.431Z,83.05
2017-10-15T16:30:56.401Z,82.96
2017-10-15T16:31:56.395Z,83.05
2017-10-15T16:32:56.360Z,83.82
2017-10-15T16:34:17.379Z,84.20
2017-10-15T16:34:56.333Z,83.87
2017-10-15T16:35:56.357Z,84.16
2017-10-15T16:36:58.106Z,83.97
2017-10-15T16:37:56.335Z,83.78
2017-10-15T16:38:56.308Z,84.55
2017-10-15T16:40:17.318Z,84.45
2017-10-15T16:40:56.239Z,84.45
2017-10-15T16:41:56.242Z,84.74
2017-10-15T16:42:56.257Z,84.92
2017-10-15T16:43:56.195Z,84.69
2017-10-15T16:44:56.172Z,84.74
2017-10-15T16:46:18.268Z,85.02
2017-10-15T16:46:56.159Z,85.36
2017-10-15T16:47:56.133Z,85.36
2017-10-15T16:48:56.144Z,85.08
2017-10-15T16:49:56.087Z,84.88
2017-10-15T16:50:56.084Z,84.69
2017-10-15T16:52:17.072Z,84.69
2017-10-15T16:52:56.069Z,84.31
2017-10-15T16:53:56.044Z,85.36
2017-10-15T16:54:56.015Z,85.61
2017-10-15T16:55:56.022Z,85.51
2017-10-15T16:56:56.001Z,85.51
2017-10-15T16:58:16.988Z,85.89
2017-10-15T16:58:55.951Z,85.99
2017-10-15T16:59:55.946Z,85.80
2017-10-15T17:00:55.930Z,85.89
2017-10-15T17:01:55.923Z,86.28
2017-10-15T17:02:55.911Z,86.28
2017-10-15T17:04:17.325Z,86.76
2017-10-15T17:04:55.870Z,86.66
2017-10-15T17:05:55.881Z,86.90
2017-10-15T17:06:55.865Z,87.86
2017-10-15T17:07:55.851Z,87.29
2017-10-15T17:08:55.817Z,87.86
2017-10-15T17:10:16.796Z,88.34
2017-10-15T17:10:55.773Z,88.62
2017-10-15T17:11:55.749Z,89.20
2017-10-15T17:12:55.735Z,89.77
2017-10-15T17:13:55.737Z,89.77
2017-10-15T17:14:55.715Z,89.87
2017-10-15T17:16:16.708Z,89.77
2017-10-15T17:16:55.691Z,89.58
2017-10-15T17:17:55.649Z,89.87
2017-10-15T17:18:55.636Z,89.29
2017-10-15T17:19:55.626Z,89.01
2017-10-15T17:20:55.629Z,89.58
2017-10-15T17:22:16.608Z,89.48
2017-10-15T17:22:55.889Z,89.48
2017-10-15T17:23:55.574Z,89.92
2017-10-15T17:24:55.534Z,89.44
2017-10-15T17:25:55.529Z,89.53
2017-10-15T17:26:55.686Z,89.44
2017-10-15T17:28:16.510Z,89.73
2017-10-15T17:28:55.474Z,89.73
2017-10-15T17:29:55.482Z,89.82
2017-10-15T17:30:55.433Z,90.11
2017-10-15T17:31:55.419Z,89.82
2017-10-15T17:32:55.402Z,89.92
2017-10-15T17:34:19.153Z,90.11
2017-10-15T17:35:02.357Z,90.30
2017-10-15T17:35:55.347Z,90.49
2017-10-15T17:36:55.369Z,90.78
2017-10-15T17:37:55.310Z,90.88
2017-10-15T17:38:55.332Z,91.06
2017-10-15T17:40:16.306Z,91.06
2017-10-15T17:40:55.291Z,90.88
2017-10-15T17:41:55.254Z,90.97
2017-10-15T17:42:55.246Z,91.16
2017-10-15T17:43:55.226Z,90.88
2017-10-15T17:44:55.204Z,91.45
2017-10-15T17:46:16.208Z,91.45
2017-10-15T17:46:55.172Z,91.45
2017-10-15T17:47:55.141Z,91.83
2017-10-15T17:48:55.135Z,92.02
2017-10-15T17:49:55.130Z,92.21
2017-10-15T17:50:55.093Z,92.11
2017-10-15T17:52:16.090Z,92.21
2017-10-15T17:52:55.077Z,92.21
2017-10-15T17:53:55.061Z,92.21
2017-10-15T17:54:55.073Z,92.11
2017-10-15T17:55:55.042Z,91.93
2017-10-15T17:56:54.990Z,92.30
2017-10-15T17:58:15.972Z,92.79
2017-10-15T17:58:54.975Z,92.02
2017-10-15T17:59:54.933Z,91.97
2017-10-15T18:00:54.933Z,91.88
2017-10-15T18:01:54.921Z,91.78
2017-10-15T18:02:54.888Z,92.07
2017-10-15T18:04:16.636Z,92.64
2017-10-15T18:04:54.851Z,92.55
2017-10-15T18:05:54.853Z,92.83
2017-10-15T18:06:54.823Z,92.83
2017-10-15T18:07:54.855Z,92.55
2017-10-15T18:08:54.779Z,92.07
2017-10-15T18:10:15.829Z,92.64
2017-10-15T18:10:54.750Z,92.55
2017-10-15T18:11:54.741Z,92.64
2017-10-15T18:12:54.720Z,93.41
2017-10-15T18:13:54.711Z,93.31
2017-10-15T18:14:54.686Z,93.41
2017-10-15T18:16:15.664Z,93.50
2017-10-15T18:16:54.652Z,93.50
2017-10-15T18:17:54.632Z,93.41
2017-10-15T18:18:54.615Z,93.41
2017-10-15T18:19:54.599Z,93.41
2017-10-15T18:20:54.567Z,93.60
2017-10-15T18:22:15.560Z,93.60
2017-10-15T18:22:54.555Z,93.31
2017-10-15T18:23:54.550Z,92.60
2017-10-15T18:24:54.519Z,93.31
2017-10-15T18:25:54.489Z,93.36
2017-10-15T18:26:54.482Z,93.17
2017-10-15T18:28:15.488Z,93.31
2017-10-15T18:28:54.454Z,92.79
2017-10-15T18:29:54.429Z,92.88
2017-10-15T18:30:54.421Z,92.60
2017-10-15T18:31:54.393Z,92.69
2017-10-15T18:32:54.362Z,92.88
2017-10-15T18:34:15.381Z,93.46
2017-10-15T18:34:54.333Z,92.88
2017-10-15T18:35:54.327Z,92.60
2017-10-15T18:36:54.317Z,92.69
2017-10-15T18:37:54.296Z,92.97
2017-10-15T18:38:54.293Z,92.60
2017-10-15T18:40:15.260Z,92.88
2017-10-15T18:40:54.263Z,92.88
2017-10-15T18:41:54.213Z,92.60
2017-10-15T18:42:54.190Z,92.41
2017-10-15T18:43:54.173Z,93.07
2017-10-15T18:44:54.182Z,92.41
2017-10-15T18:46:15.170Z,92.41
2017-10-15T18:46:54.138Z,92.69
2017-10-15T18:47:54.130Z,92.79
2017-10-15T18:48:54.118Z,92.50
2017-10-15T18:49:54.091Z,92.41
2017-10-15T18:50:54.047Z,92.60
2017-10-15T18:52:15.059Z,92.97
2017-10-15T18:52:54.017Z,92.65
2017-10-15T18:53:54.008Z,92.74
2017-10-15T18:54:53.993Z,92.97
2017-10-15T18:55:53.964Z,93.02
2017-10-15T18:56:53.968Z,93.12
2017-10-15T18:58:14.937Z,92.46
2017-10-15T18:58:53.901Z,92.83
2017-10-15T18:59:53.891Z,93.60
2017-10-15T19:00:53.865Z,93.51
2017-10-15T19:01:53.882Z,93.79
2017-10-15T19:02:53.834Z,93.98
2017-10-15T19:04:14.859Z,94.17
2017-10-15T19:04:53.796Z,94.36
2017-10-15T19:05:53.794Z,94.17
2017-10-15T19:06:53.775Z,93.88
2017-10-15T19:07:53.753Z,93.98
2017-10-15T19:08:53.731Z,93.98
2017-10-15T19:10:14.714Z,94.17
2017-10-15T19:10:53.692Z,94.27
2017-10-15T19:11:53.682Z,94.36
2017-10-15T19:12:53.691Z,94.07
2017-10-15T19:13:53.634Z,94.36
2017-10-15T19:14:53.616Z,93.70
2017-10-15T19:16:14.598Z,93.41
2017-10-15T19:16:53.593Z,93.88
2017-10-15T19:17:53.554Z,94.17
2017-10-15T19:18:53.554Z,93.98
2017-10-15T19:19:53.523Z,94.46
2017-10-15T19:20:53.515Z,94.36
2017-10-15T19:22:14.512Z,94.46
2017-10-15T19:22:53.488Z,94.36
2017-10-15T19:23:53.470Z,93.88
2017-10-15T19:24:53.435Z,94.03
2017-10-15T19:25:53.417Z,93.93
2017-10-15T19:26:53.397Z,94.22
2017-10-15T19:28:14.383Z,94.03
2017-10-15T19:28:53.364Z,94.03
2017-10-15T19:29:53.343Z,94.32
2017-10-15T19:30:53.330Z,94.70
2017-10-15T19:31:53.302Z,94.03
2017-10-15T19:32:53.284Z,94.03
2017-10-15T19:34:14.306Z,93.93
2017-10-15T19:34:53.254Z,93.74
2017-10-15T19:35:53.231Z,93.55
2017-10-15T19:36:53.212Z,94.41
2017-10-15T19:37:53.208Z,94.32
2017-10-15T19:38:53.197Z,94.12
2017-10-15T19:40:14.162Z,94.32
2017-10-15T19:40:53.149Z,93.93
2017-10-15T19:41:53.142Z,94.03
2017-10-15T19:42:53.105Z,94.41
2017-10-15T19:43:53.102Z,94.22
2017-10-15T19:44:53.077Z,94.32
2017-10-15T19:46:14.049Z,94.12
2017-10-15T19:46:53.031Z,94.12
2017-10-15T19:47:53.045Z,93.93
2017-10-15T19:48:53.006Z,94.12
2017-10-15T19:49:52.977Z,94.41
2017-10-15T19:50:52.952Z,94.12
2017-10-15T19:52:13.941Z,94.70
2017-10-15T19:52:52.931Z,94.51
2017-10-15T19:53:52.917Z,94.60
2017-10-15T19:54:52.880Z,94.41
2017-10-15T19:55:52.889Z,94.89
2017-10-15T19:56:52.872Z,95.17
2017-10-15T19:58:13.839Z,95.27
2017-10-15T19:58:52.802Z,94.70
2017-10-15T19:59:52.828Z,94.70
2017-10-15T20:00:52.768Z,94.56
2017-10-15T20:01:52.751Z,94.89
2017-10-15T20:02:52.751Z,94.84
2017-10-15T20:04:13.723Z,94.84
2017-10-15T20:04:52.695Z,94.46
2017-10-15T20:05:52.699Z,94.65
2017-10-15T20:06:52.657Z,94.84
2017-10-15T20:07:52.670Z,94.84
2017-10-15T20:08:52.640Z,94.84
2017-10-15T20:10:13.602Z,94.27
2017-10-15T20:10:52.584Z,94.46
2017-10-15T20:11:52.577Z,94.27
2017-10-15T20:12:52.553Z,94.37
2017-10-15T20:13:52.553Z,94.65
2017-10-15T20:14:52.516Z,94.37
2017-10-15T20:16:13.492Z,94.56
2017-10-15T20:16:52.469Z,94.74
2017-10-15T20:17:52.490Z,94.93
2017-10-15T20:18:52.443Z,95.03
2017-10-15T20:19:52.412Z,94.93
2017-10-15T20:20:52.401Z,95.03
2017-10-15T20:22:13.383Z,95.70
2017-10-15T20:22:52.357Z,94.84
2017-10-15T20:23:52.352Z,95.22
2017-10-15T20:24:52.322Z,95.32
2017-10-15T20:25:52.323Z,95.51
2017-10-15T20:26:52.294Z,95.41
2017-10-15T20:28:13.291Z,95.12
2017-10-15T20:28:52.265Z,95.12
2017-10-15T20:29:52.230Z,94.79
2017-10-15T20:30:52.211Z,94.89
2017-10-15T20:31:52.189Z,95.03
2017-10-15T20:32:52.194Z,94.84
2017-10-15T20:34:13.172Z,95.61
2017-10-15T20:34:52.146Z,95.56
2017-10-15T20:35:52.126Z,95.46
2017-10-15T20:36:52.106Z,95.36
2017-10-15T20:37:52.087Z,95.56
2017-10-15T20:38:52.069Z,94.79
2017-10-15T20:40:13.051Z,94.60
2017-10-15T20:40:52.036Z,94.79
2017-10-15T20:41:52.014Z,94.70
2017-10-15T20:42:52.003Z,95.36
2017-10-15T20:43:51.982Z,95.46
2017-10-15T20:44:51.951Z,95.27
2017-10-15T20:46:12.941Z,95.75
2017-10-15T20:46:51.912Z,96.12
2017-10-15T20:47:51.890Z,96.03
2017-10-15T20:48:51.872Z,97.08
2017-10-15T20:49:51.856Z,97.56
2017-10-15T20:50:51.838Z,97.27
2017-10-15T20:52:12.822Z,96.98
2017-10-15T20:52:51.799Z,96.80
2017-10-15T20:53:51.810Z,96.60
2017-10-15T20:54:51.753Z,96.70
2017-10-15T20:55:51.737Z,96.03
2017-10-15T20:56:51.746Z,96.22
2017-10-15T20:58:12.711Z,96.12
2017-10-15T20:58:51.719Z,95.56
2017-10-15T20:59:51.682Z,95.56
2017-10-15T21:00:51.643Z,95.84
2017-10-15T21:01:51.652Z,95.84
2017-10-15T21:02:51.627Z,95.17
2017-10-15T21:04:12.617Z,95.46
2017-10-15T21:04:51.574Z,95.65
2017-10-15T21:05:51.545Z,95.46
2017-10-15T21:06:51.534Z,95.32
2017-10-15T21:07:51.509Z,95.94
2017-10-15T21:08:51.523Z,96.12
2017-10-15T21:10:12.484Z,95.79
2017-10-15T21:10:52.189Z,96.22
2017-10-15T21:11:51.439Z,95.84
2017-10-15T21:12:51.431Z,96.03
2017-10-15T21:13:51.423Z,96.51
2017-10-15T21:14:51.398Z,96.46
2017-10-15T21:16:12.371Z,96.03
2017-10-15T21:16:51.345Z,95.22
2017-10-15T21:17:51.379Z,96.08
2017-10-15T21:18:51.316Z,95.79
2017-10-15T21:19:51.278Z,96.08
2017-10-15T21:20:51.261Z,95.51
2017-10-15T21:22:12.294Z,95.32
2017-10-15T21:22:51.233Z,95.32
2017-10-15T21:23:51.202Z,95.89
2017-10-15T21:24:51.181Z,96.27
2017-10-15T21:25:51.174Z,96.27
2017-10-15T21:26:51.157Z,96.55
2017-10-15T21:28:12.171Z,95.98
2017-10-15T21:28:51.097Z,96.27
2017-10-15T21:29:51.105Z,96.55
2017-10-15T21:30:51.076Z,96.75
2017-10-15T21:31:51.046Z,96.55
2017-10-15T21:32:51.057Z,96.46
2017-10-15T21:34:12.005Z,96.55
2017-10-15T21:34:50.994Z,96.55
2017-10-15T21:35:50.964Z,96.65
2017-10-15T21:36:50.972Z,96.65
2017-10-15T21:37:50.942Z,96.36
2017-10-15T21:38:50.938Z,96.65
2017-10-15T21:40:11.913Z,96.08
2017-10-15T21:40:50.884Z,97.13
2017-10-15T21:41:50.917Z,96.46
2017-10-15T21:42:50.903Z,96.27
2017-10-15T21:43:50.844Z,96.65
2017-10-15T21:44:50.841Z,96.65
2017-10-15T21:46:11.806Z,96.94
2017-10-15T21:46:50.768Z,97.03
2017-10-15T21:47:50.734Z,97.03
2017-10-15T21:48:50.713Z,97.03
2017-10-15T21:49:50.715Z,96.94
2017-10-15T21:50:50.670Z,97.03
2017-10-15T21:52:11.672Z,97.22
2017-10-15T21:52:50.679Z,97.31
2017-10-15T21:53:50.639Z,96.94
2017-10-15T21:54:50.647Z,97.60
2017-10-15T21:55:50.607Z,97.60
2017-10-15T21:56:50.589Z,97.41
2017-10-15T21:58:11.583Z,97.60
2017-10-15T21:58:50.521Z,97.03
2017-10-15T21:59:50.562Z,97.22
2017-10-15T22:00:50.501Z,97.03
2017-10-15T22:01:50.545Z,97.41
2017-10-15T22:02:50.465Z,97.03
2017-10-15T22:04:11.483Z,96.94
2017-10-15T22:04:50.447Z,97.13
2017-10-15T22:05:50.389Z,96.98
2017-10-15T22:06:50.444Z,96.70
2017-10-15T22:07:50.349Z,96.70
2017-10-15T22:08:50.346Z,96.70
2017-10-15T22:10:11.316Z,97.13
2017-10-15T22:10:50.316Z,96.60
2017-10-15T22:11:50.311Z,96.65
2017-10-15T22:12:50.276Z,96.79
2017-10-15T22:13:50.236Z,96.41
2017-10-15T22:14:50.203Z,96.60
2017-10-15T22:16:11.192Z,96.89
2017-10-15T22:16:50.163Z,97.08
2017-10-15T22:17:50.178Z,96.98
2017-10-15T22:18:50.153Z,96.89
2017-10-15T22:19:50.119Z,96.51
2017-10-15T22:20:50.100Z,96.98
2017-10-15T22:22:11.072Z,96.60
2017-10-15T22:22:50.055Z,97.08
2017-10-15T22:23:50.078Z,97.08
2017-10-15T22:24:50.028Z,96.70
2017-10-15T22:25:49.990Z,97.27
2017-10-15T22:26:49.974Z,96.60
2017-10-15T22:28:10.978Z,97.08
2017-10-15T22:28:49.936Z,96.89
2017-10-15T22:29:49.939Z,96.70
2017-10-15T22:30:49.892Z,97.46
2017-10-15T22:31:49.874Z,97.27
2017-10-15T22:32:49.874Z,97.55
2017-10-15T22:34:10.906Z,97.55
2017-10-15T22:34:49.825Z,97.17
2017-10-15T22:35:49.799Z,97.27
2017-10-15T22:36:49.780Z,97.46
2017-10-15T22:37:49.748Z,97.46
2017-10-15T22:38:49.757Z,97.46
2017-10-15T22:40:10.743Z,97.46
2017-10-15T22:40:49.697Z,97.46
2017-10-15T22:41:49.696Z,97.55
2017-10-15T22:42:49.657Z,97.27
2017-10-15T22:43:49.654Z,97.65
2017-10-15T22:44:49.622Z,97.55
2017-10-15T22:46:10.619Z,97.08
2017-10-15T22:46:49.596Z,96.89
2017-10-15T22:47:49.568Z,96.98
2017-10-15T22:48:49.542Z,97.17
2017-10-15T22:49:49.521Z,96.79
2017-10-15T22:50:49.509Z,97.27
2017-10-15T22:52:10.473Z,97.08
2017-10-15T22:52:49.460Z,97.08
2017-10-15T22:53:49.442Z,96.98
2017-10-15T22:54:49.418Z,97.17
2017-10-15T22:55:49.418Z,96.70
2017-10-15T22:56:49.380Z,96.98
2017-10-15T22:58:10.365Z,96.98
2017-10-15T22:58:49.344Z,96.89
2017-10-15T22:59:49.318Z,96.79
2017-10-15T23:00:49.297Z,96.51
2017-10-15T23:01:49.312Z,96.60
2017-10-15T23:02:49.265Z,96.31
2017-10-15T23:04:10.249Z,96.51
2017-10-15T23:04:49.216Z,96.51
2017-10-15T23:05:49.218Z,96.98
2017-10-15T23:06:49.175Z,96.98
2017-10-15T23:07:49.152Z,96.51
2017-10-15T23:08:49.140Z,96.60
2017-10-15T23:10:10.138Z,96.51
2017-10-15T23:10:49.104Z,96.89
2017-10-15T23:11:49.074Z,96.41
2017-10-15T23:12:49.087Z,96.55
2017-10-15T23:13:49.070Z,96.31
2017-10-15T23:14:49.030Z,96.55
2017-10-15T23:16:10.048Z,96.65
2017-10-15T23:16:48.995Z,96.55
2017-10-15T23:17:48.966Z,96.65
2017-10-15T23:18:48.946Z,96.46
2017-10-15T23:19:48.946Z,96.55
2017-10-15T23:20:48.914Z,96.84
2017-10-15T23:22:09.917Z,96.36
2017-10-15T23:22:48.871Z,96.75
2017-10-15T23:23:48.850Z,96.55
2017-10-15T23:24:48.832Z,96.75
2017-10-15T23:25:48.820Z,96.55
2017-10-15T23:26:48.779Z,96.36
2017-10-15T23:28:09.778Z,96.84
2017-10-15T23:28:48.733Z,96.36
2017-10-15T23:29:48.750Z,96.65
2017-10-15T23:30:48.718Z,96.46
2017-10-15T23:31:48.692Z,96.27
2017-10-15T23:32:48.694Z,96.46
2017-10-15T23:34:09.654Z,96.36
2017-10-15T23:34:48.640Z,97.03
2017-10-15T23:35:48.635Z,96.84
2017-10-15T23:36:48.593Z,96.94
2017-10-15T23:37:48.567Z,95.98
2017-10-15T23:38:48.547Z,95.89
2017-10-15T23:40:09.557Z,96.65
2017-10-15T23:40:48.511Z,96.36
2017-10-15T23:41:48.512Z,96.55
2017-10-15T23:42:48.488Z,96.51
2017-10-15T23:43:48.458Z,97.03
2017-10-15T23:44:48.475Z,96.70
2017-10-15T23:46:09.407Z,96.03
2017-10-15T23:46:48.389Z,96.12
2017-10-15T23:47:48.358Z,97.08
2017-10-15T23:48:48.354Z,96.84
2017-10-15T23:49:48.325Z,96.70
2017-10-15T23:50:48.333Z,96.60
2017-10-15T23:52:09.292Z,96.70
2017-10-15T23:52:48.278Z,96.32
2017-10-15T23:53:48.235Z,96.70
2017-10-15T23:54:48.255Z,97.17
2017-10-15T23:55:48.200Z,97.17
2017-10-15T23:56:48.190Z,97.17
2017-10-15T23:58:09.180Z,97.56
2017-10-15T23:58:48.149Z,97.56
2017-10-15T23:59:48.136Z,97.41
